sensor_id;sensor_type;location;lat;lon;timestamp;pressure;altitude;pressure_sealevel;temperature;humidity
65329;BME280;51941;52.210;5.158;2023-04-24T00:00:29;99689.31;;;11.54;100.00
65329;BME280;51941;52.210;5.158;2023-04-24T00:03:01;99693.84;;;11.48;100.00
65329;BME280;51941;52.210;5.158;2023-04-24T00:05:28;99700.44;;;11.40;100.00
65329;BME280;51941;52.210;5.158;2023-04-24T00:07:55;99710.25;;;11.45;100.00
65329;BME280;51941;52.210;5.158;2023-04-24T00:10:21;99715.84;;;11.49;100.00
65329;BME280;51941;52.210;5.158;2023-04-24T00:12:48;99725.09;;;11.46;100.00
65329;BME280;51941;52.210;5.158;2023-04-24T00:15:15;99731.44;;;11.50;100.00
65329;BME280;51941;52.210;5.158;2023-04-24T00:17:41;99732.00;;;11.52;100.00
65329;BME280;51941;52.210;5.158;2023-04-24T00:20:10;99734.91;;;11.56;100.00
65329;BME280;51941;52.210;5.158;2023-04-24T00:22:37;99736.78;;;11.55;100.00
65329;BME280;51941;52.210;5.158;2023-04-24T00:25:04;99746.28;;;11.46;100.00
65329;BME280;51941;52.210;5.158;2023-04-24T00:27:31;99753.72;;;11.44;100.00
65329;BME280;51941;52.210;5.158;2023-04-24T00:30:00;99762.72;;;11.43;100.00
65329;BME280;51941;52.210;5.158;2023-04-24T00:32:27;99760.06;;;11.43;100.00
65329;BME280;51941;52.210;5.158;2023-04-24T00:34:54;99763.50;;;11.43;100.00
65329;BME280;51941;52.210;5.158;2023-04-24T00:37:22;99764.03;;;11.40;100.00
65329;BME280;51941;52.210;5.158;2023-04-24T00:39:49;99763.50;;;11.38;100.00
65329;BME280;51941;52.210;5.158;2023-04-24T00:42:15;99772.78;;;11.41;100.00
65329;BME280;51941;52.210;5.158;2023-04-24T00:44:42;99769.84;;;11.32;100.00
65329;BME280;51941;52.210;5.158;2023-04-24T00:47:10;99786.00;;;11.36;100.00
65329;BME280;51941;52.210;5.158;2023-04-24T00:49:37;99786.28;;;11.29;100.00
65329;BME280;51941;52.210;5.158;2023-04-24T00:52:04;99786.78;;;11.21;100.00
65329;BME280;51941;52.210;5.158;2023-04-24T00:54:35;99795.22;;;11.18;100.00
65329;BME280;51941;52.210;5.158;2023-04-24T00:57:02;99794.44;;;11.18;100.00
65329;BME280;51941;52.210;5.158;2023-04-24T00:59:29;99797.59;;;11.15;100.00
65329;BME280;51941;52.210;5.158;2023-04-24T01:01:56;99799.44;;;11.14;100.00
65329;BME280;51941;52.210;5.158;2023-04-24T01:04:24;99793.59;;;11.07;100.00
65329;BME280;51941;52.210;5.158;2023-04-24T01:06:51;99802.63;;;11.11;100.00
65329;BME280;51941;52.210;5.158;2023-04-24T01:09:18;99811.06;;;11.08;100.00
65329;BME280;51941;52.210;5.158;2023-04-24T01:11:47;99810.28;;;11.02;100.00
65329;BME280;51941;52.210;5.158;2023-04-24T01:14:14;99817.66;;;11.00;100.00
65329;BME280;51941;52.210;5.158;2023-04-24T01:16:41;99810.22;;;10.97;100.00
65329;BME280;51941;52.210;5.158;2023-04-24T01:19:09;99808.13;;;10.99;100.00
65329;BME280;51941;52.210;5.158;2023-04-24T01:21:37;99813.41;;;10.99;100.00
65329;BME280;51941;52.210;5.158;2023-04-24T01:24:06;99755.75;;;10.59;100.00
65329;BME280;51941;52.210;5.158;2023-04-24T01:26:33;99816.56;;;10.96;100.00
65329;BME280;51941;52.210;5.158;2023-04-24T01:29:00;99815.53;;;10.97;100.00
65329;BME280;51941;52.210;5.158;2023-04-24T01:31:27;99817.41;;;11.02;100.00
65329;BME280;51941;52.210;5.158;2023-04-24T01:33:54;99813.97;;;11.06;100.00
65329;BME280;51941;52.210;5.158;2023-04-24T01:36:23;99817.47;;;11.12;100.00
65329;BME280;51941;52.210;5.158;2023-04-24T01:38:50;99813.47;;;11.15;100.00
65329;BME280;51941;52.210;5.158;2023-04-24T01:41:19;99807.13;;;11.11;100.00
65329;BME280;51941;52.210;5.158;2023-04-24T01:43:45;99800.75;;;11.06;100.00
65329;BME280;51941;52.210;5.158;2023-04-24T01:46:12;99822.78;;;11.17;100.00
65329;BME280;51941;52.210;5.158;2023-04-24T01:48:39;99817.97;;;11.14;100.00
65329;BME280;51941;52.210;5.158;2023-04-24T01:51:06;99810.03;;;11.09;100.00
65329;BME280;51941;52.210;5.158;2023-04-24T01:53:33;99820.13;;;11.17;100.00
65329;BME280;51941;52.210;5.158;2023-04-24T01:55:59;99823.56;;;11.18;100.00
65329;BME280;51941;52.210;5.158;2023-04-24T01:58:28;99823.56;;;11.23;100.00
65329;BME280;51941;52.210;5.158;2023-04-24T02:00:56;99821.72;;;11.13;100.00
65329;BME280;51941;52.210;5.158;2023-04-24T02:03:23;99821.66;;;11.08;100.00
65329;BME280;51941;52.210;5.158;2023-04-24T02:05:49;99828.81;;;11.07;100.00
65329;BME280;51941;52.210;5.158;2023-04-24T02:08:16;99817.66;;;11.00;100.00
65329;BME280;51941;52.210;5.158;2023-04-24T02:10:43;99819.75;;;10.93;100.00
65329;BME280;51941;52.210;5.158;2023-04-24T02:13:09;99823.19;;;10.94;100.00
65329;BME280;51941;52.210;5.158;2023-04-24T02:15:37;99831.66;;;10.91;100.00
65329;BME280;51941;52.210;5.158;2023-04-24T02:18:04;99835.59;;;10.88;100.00
65329;BME280;51941;52.210;5.158;2023-04-24T02:20:32;99834.53;;;10.89;100.00
65329;BME280;51941;52.210;5.158;2023-04-24T02:22:59;99840.38;;;10.86;100.00
65329;BME280;51941;52.210;5.158;2023-04-24T02:25:26;99825.81;;;10.89;100.00
65329;BME280;51941;52.210;5.158;2023-04-24T02:27:54;99831.63;;;10.86;100.00
65329;BME280;51941;52.210;5.158;2023-04-24T02:30:21;99833.69;;;10.79;100.00
65329;BME280;51941;52.210;5.158;2023-04-24T02:32:49;99830.69;;;10.70;100.00
65329;BME280;51941;52.210;5.158;2023-04-24T02:35:17;99834.44;;;10.74;100.00
65329;BME280;51941;52.210;5.158;2023-04-24T02:37:44;99834.69;;;10.73;100.00
65329;BME280;51941;52.210;5.158;2023-04-24T02:40:11;99832.63;;;10.75;100.00
65329;BME280;51941;52.210;5.158;2023-04-24T02:42:38;99837.66;;;10.76;100.00
65329;BME280;51941;52.210;5.158;2023-04-24T02:45:06;99837.13;;;10.79;100.00
65329;BME280;51941;52.210;5.158;2023-04-24T02:47:33;99836.09;;;10.80;100.00
65329;BME280;51941;52.210;5.158;2023-04-24T02:50:01;99835.59;;;10.83;100.00
65329;BME280;51941;52.210;5.158;2023-04-24T02:52:28;99822.25;;;10.73;100.00
65329;BME280;51941;52.210;5.158;2023-04-24T02:54:55;99833.09;;;10.72;100.00
65329;BME280;51941;52.210;5.158;2023-04-24T02:57:21;99835.03;;;10.76;100.00
65329;BME280;51941;52.210;5.158;2023-04-24T02:59:48;99838.94;;;10.74;100.00
65329;BME280;51941;52.210;5.158;2023-04-24T03:02:15;99828.06;;;10.70;100.00
65329;BME280;51941;52.210;5.158;2023-04-24T03:04:41;99822.19;;;10.63;100.00
65329;BME280;51941;52.210;5.158;2023-04-24T03:07:12;99804.19;;;10.60;100.00
65329;BME280;51941;52.210;5.158;2023-04-24T03:09:39;99822.84;;;10.75;100.00
65329;BME280;51941;52.210;5.158;2023-04-24T03:12:07;99831.78;;;10.74;100.00
65329;BME280;51941;52.210;5.158;2023-04-24T03:14:34;99832.84;;;10.73;100.00
65329;BME280;51941;52.210;5.158;2023-04-24T03:17:00;99833.31;;;10.65;100.00
65329;BME280;51941;52.210;5.158;2023-04-24T03:19:27;99841.00;;;10.66;100.00
65329;BME280;51941;52.210;5.158;2023-04-24T03:22:01;99834.41;;;10.69;100.00
65329;BME280;51941;52.210;5.158;2023-04-24T03:24:30;99829.13;;;10.69;100.00
65329;BME280;51941;52.210;5.158;2023-04-24T03:26:57;99836.53;;;10.72;100.00
65329;BME280;51941;52.210;5.158;2023-04-24T03:29:53;99837.59;;;10.71;100.00
65329;BME280;51941;52.210;5.158;2023-04-24T03:32:23;99812.66;;;10.62;100.00
65329;BME280;51941;52.210;5.158;2023-04-24T03:34:51;99833.63;;;10.68;100.00
65329;BME280;51941;52.210;5.158;2023-04-24T03:37:18;99838.13;;;10.68;100.00
65329;BME280;51941;52.210;5.158;2023-04-24T03:39:57;99836.78;;;10.70;100.00
65329;BME280;51941;52.210;5.158;2023-04-24T03:42:25;99834.41;;;10.69;100.00
65329;BME280;51941;52.210;5.158;2023-04-24T03:44:54;99835.50;;;10.73;100.00
65329;BME280;51941;52.210;5.158;2023-04-24T03:47:25;99825.63;;;10.63;100.00
65329;BME280;51941;52.210;5.158;2023-04-24T03:49:54;99841.38;;;10.75;100.00
65329;BME280;51941;52.210;5.158;2023-04-24T03:52:21;99829.16;;;10.74;100.00
65329;BME280;51941;52.210;5.158;2023-04-24T03:54:48;99830.19;;;10.73;100.00
65329;BME280;51941;52.210;5.158;2023-04-24T03:57:17;99819.06;;;10.71;100.00
65329;BME280;51941;52.210;5.158;2023-04-24T03:59:56;99831.09;;;10.84;100.00
65329;BME280;51941;52.210;5.158;2023-04-24T04:02:24;99823.91;;;10.79;100.00
65329;BME280;51941;52.210;5.158;2023-04-24T04:04:51;99831.31;;;10.77;100.00
65329;BME280;51941;52.210;5.158;2023-04-24T04:07:18;99827.06;;;10.76;100.00
65329;BME280;51941;52.210;5.158;2023-04-24T04:09:45;99841.44;;;10.85;100.00
65329;BME280;51941;52.210;5.158;2023-04-24T04:12:11;99839.81;;;10.84;100.00
65329;BME280;51941;52.210;5.158;2023-04-24T04:14:40;99824.97;;;10.78;100.00
65329;BME280;51941;52.210;5.158;2023-04-24T04:17:07;99849.13;;;10.92;100.00
65329;BME280;51941;52.210;5.158;2023-04-24T04:19:34;99855.22;;;10.92;100.00
65329;BME280;51941;52.210;5.158;2023-04-24T04:22:02;99855.53;;;11.01;100.00
65329;BME280;51941;52.210;5.158;2023-04-24T04:24:40;99866.13;;;11.01;100.00
65329;BME280;51941;52.210;5.158;2023-04-24T04:27:08;99863.72;;;10.99;100.00
65329;BME280;51941;52.210;5.158;2023-04-24T04:29:45;99863.72;;;10.99;100.00
65329;BME280;51941;52.210;5.158;2023-04-24T04:32:13;99865.84;;;10.97;100.00
65329;BME280;51941;52.210;5.158;2023-04-24T04:34:41;99871.41;;;10.96;100.00
65329;BME280;51941;52.210;5.158;2023-04-24T04:37:10;99874.88;;;11.01;100.00
65329;BME280;51941;52.210;5.158;2023-04-24T04:39:54;99882.00;;;10.96;100.00
65329;BME280;51941;52.210;5.158;2023-04-24T04:42:24;99883.56;;;10.92;100.00
65329;BME280;51941;52.210;5.158;2023-04-24T04:44:52;99879.56;;;10.89;100.00
65329;BME280;51941;52.210;5.158;2023-04-24T04:47:26;99897.84;;;10.91;100.00
65329;BME280;51941;52.210;5.158;2023-04-24T04:49:55;99906.03;;;10.89;100.00
65329;BME280;51941;52.210;5.158;2023-04-24T04:52:27;99906.03;;;10.89;100.00
65329;BME280;51941;52.210;5.158;2023-04-24T04:55:09;99905.22;;;10.89;100.00
65329;BME280;51941;52.210;5.158;2023-04-24T04:57:59;99916.16;;;10.97;100.00
65329;BME280;51941;52.210;5.158;2023-04-24T05:00:30;99923.25;;;10.92;100.00
65329;BME280;51941;52.210;5.158;2023-04-24T05:03:01;99916.59;;;10.84;100.00
65329;BME280;51941;52.210;5.158;2023-04-24T05:05:28;99899.72;;;10.63;100.00
65329;BME280;51941;52.210;5.158;2023-04-24T05:07:55;99934.56;;;10.82;100.00
65329;BME280;51941;52.210;5.158;2023-04-24T05:10:22;99913.53;;;10.70;100.00
65329;BME280;51941;52.210;5.158;2023-04-24T05:12:52;99933.41;;;10.73;100.00
65329;BME280;51941;52.210;5.158;2023-04-24T05:15:18;99943.97;;;10.68;100.00
65329;BME280;51941;52.210;5.158;2023-04-24T05:17:46;99937.56;;;10.59;100.00
65329;BME280;51941;52.210;5.158;2023-04-24T05:20:13;99947.34;;;10.58;100.00
65329;BME280;51941;52.210;5.158;2023-04-24T05:22:40;99937.97;;;10.46;100.00
65329;BME280;51941;52.210;5.158;2023-04-24T05:25:07;99949.41;;;10.51;100.00
65329;BME280;51941;52.210;5.158;2023-04-24T05:27:52;99947.25;;;10.48;100.00
65329;BME280;51941;52.210;5.158;2023-04-24T05:30:20;99961.41;;;10.37;100.00
65329;BME280;51941;52.210;5.158;2023-04-24T05:32:48;99967.72;;;10.31;100.00
65329;BME280;51941;52.210;5.158;2023-04-24T05:35:14;99976.84;;;10.45;100.00
65329;BME280;51941;52.210;5.158;2023-04-24T05:37:41;99979.00;;;10.48;100.00
65329;BME280;51941;52.210;5.158;2023-04-24T05:40:09;99978.75;;;10.50;100.00
65329;BME280;51941;52.210;5.158;2023-04-24T05:42:36;99989.81;;;10.47;100.00
65329;BME280;51941;52.210;5.158;2023-04-24T05:45:04;99983.81;;;10.51;100.00
65329;BME280;51941;52.210;5.158;2023-04-24T05:47:31;99957.41;;;10.35;100.00
65329;BME280;51941;52.210;5.158;2023-04-24T05:50:00;99987.59;;;10.60;100.00
65329;BME280;51941;52.210;5.158;2023-04-24T05:52:27;99995.47;;;10.55;100.00
65329;BME280;51941;52.210;5.158;2023-04-24T05:54:54;99998.66;;;10.57;100.00
65329;BME280;51941;52.210;5.158;2023-04-24T05:57:23;100005.66;;;10.68;100.00
65329;BME280;51941;52.210;5.158;2023-04-24T05:59:57;100005.81;;;10.57;100.00
65329;BME280;51941;52.210;5.158;2023-04-24T06:02:25;100021.81;;;10.45;100.00
65329;BME280;51941;52.210;5.158;2023-04-24T06:04:53;100034.56;;;10.48;100.00
65329;BME280;51941;52.210;5.158;2023-04-24T06:07:22;100035.28;;;10.44;100.00
65329;BME280;51941;52.210;5.158;2023-04-24T06:09:48;100047.13;;;10.36;100.00
65329;BME280;51941;52.210;5.158;2023-04-24T06:12:15;100051.00;;;10.28;100.00
65329;BME280;51941;52.210;5.158;2023-04-24T06:14:51;100057.59;;;10.04;100.00
65329;BME280;51941;52.210;5.158;2023-04-24T06:17:42;100059.31;;;9.93;100.00
65329;BME280;51941;52.210;5.158;2023-04-24T06:20:10;100087.44;;;9.83;100.00
65329;BME280;51941;52.210;5.158;2023-04-24T06:22:38;100070.50;;;9.79;100.00
65329;BME280;51941;52.210;5.158;2023-04-24T06:25:06;100090.94;;;10.05;100.00
65329;BME280;51941;52.210;5.158;2023-04-24T06:27:33;100094.00;;;9.97;100.00
65329;BME280;51941;52.210;5.158;2023-04-24T06:30:01;100103.78;;;9.97;100.00
65329;BME280;51941;52.210;5.158;2023-04-24T06:32:27;100105.53;;;9.91;100.00
65329;BME280;51941;52.210;5.158;2023-04-24T06:34:56;100116.84;;;9.86;100.00
65329;BME280;51941;52.210;5.158;2023-04-24T06:37:23;100121.28;;;9.64;100.00
65329;BME280;51941;52.210;5.158;2023-04-24T06:39:51;100122.22;;;9.58;100.00
65329;BME280;51941;52.210;5.158;2023-04-24T06:42:18;100138.59;;;9.55;100.00
65329;BME280;51941;52.210;5.158;2023-04-24T06:44:48;100139.06;;;9.52;100.00
65329;BME280;51941;52.210;5.158;2023-04-24T06:47:14;100151.00;;;9.38;100.00
65329;BME280;51941;52.210;5.158;2023-04-24T06:49:41;100156.97;;;9.50;100.00
65329;BME280;51941;52.210;5.158;2023-04-24T06:52:08;100167.25;;;9.46;100.00
65329;BME280;51941;52.210;5.158;2023-04-24T06:54:35;100170.19;;;9.50;100.00
65329;BME280;51941;52.210;5.158;2023-04-24T06:57:03;100146.47;;;9.38;100.00
65329;BME280;51941;52.210;5.158;2023-04-24T06:59:29;100192.31;;;9.61;100.00
65329;BME280;51941;52.210;5.158;2023-04-24T07:01:56;100180.59;;;9.56;100.00
65329;BME280;51941;52.210;5.158;2023-04-24T07:04:23;100194.38;;;9.59;100.00
65329;BME280;51941;52.210;5.158;2023-04-24T07:06:51;100190.22;;;9.63;100.00
65329;BME280;51941;52.210;5.158;2023-04-24T07:09:19;100191.34;;;9.67;100.00
65329;BME280;51941;52.210;5.158;2023-04-24T07:11:49;100207.81;;;9.74;100.00
65329;BME280;51941;52.210;5.158;2023-04-24T07:14:18;100187.81;;;9.61;100.00
65329;BME280;51941;52.210;5.158;2023-04-24T07:16:45;100204.94;;;9.59;100.00
65329;BME280;51941;52.210;5.158;2023-04-24T07:19:12;100216.50;;;9.69;100.00
65329;BME280;51941;52.210;5.158;2023-04-24T07:21:40;100222.97;;;9.78;100.00
65329;BME280;51941;52.210;5.158;2023-04-24T07:24:07;100222.19;;;9.78;100.00
65329;BME280;51941;52.210;5.158;2023-04-24T07:26:36;100230.97;;;9.83;100.00
65329;BME280;51941;52.210;5.158;2023-04-24T07:29:03;100240.69;;;9.78;100.00
65329;BME280;51941;52.210;5.158;2023-04-24T07:31:32;100240.06;;;9.87;100.00
65329;BME280;51941;52.210;5.158;2023-04-24T07:33:58;100243.41;;;9.83;100.00
65329;BME280;51941;52.210;5.158;2023-04-24T07:36:25;100246.84;;;9.83;100.00
65329;BME280;51941;52.210;5.158;2023-04-24T07:38:54;100239.94;;;9.66;100.00
65329;BME280;51941;52.210;5.158;2023-04-24T07:41:20;100260.94;;;9.72;100.00
65329;BME280;51941;52.210;5.158;2023-04-24T07:43:47;100266.06;;;9.79;100.00
65329;BME280;51941;52.210;5.158;2023-04-24T07:46:14;100281.59;;;9.75;100.00
65329;BME280;51941;52.210;5.158;2023-04-24T07:49:08;100288.66;;;9.70;100.00
65329;BME280;51941;52.210;5.158;2023-04-24T07:52:12;100293.38;;;9.68;100.00
65329;BME280;51941;52.210;5.158;2023-04-24T07:54:39;100292.66;;;9.72;100.00
65329;BME280;51941;52.210;5.158;2023-04-24T07:57:05;100297.44;;;9.59;100.00
65329;BME280;51941;52.210;5.158;2023-04-24T07:59:33;100309.03;;;9.57;100.00
65329;BME280;51941;52.210;5.158;2023-04-24T08:02:00;100310.31;;;9.55;100.00
65329;BME280;51941;52.210;5.158;2023-04-24T08:04:28;100312.84;;;9.50;100.00
65329;BME280;51941;52.210;5.158;2023-04-24T08:06:55;100322.19;;;9.41;100.00
65329;BME280;51941;52.210;5.158;2023-04-24T08:09:35;100297.34;;;9.25;100.00
65329;BME280;51941;52.210;5.158;2023-04-24T08:12:08;100338.00;;;9.52;100.00
65329;BME280;51941;52.210;5.158;2023-04-24T08:14:35;100354.91;;;9.51;100.00
65329;BME280;51941;52.210;5.158;2023-04-24T08:17:03;100358.19;;;9.59;100.00
65329;BME280;51941;52.210;5.158;2023-04-24T08:19:31;100356.13;;;9.61;100.00
65329;BME280;51941;52.210;5.158;2023-04-24T08:21:57;100371.41;;;9.59;100.00
65329;BME280;51941;52.210;5.158;2023-04-24T08:24:24;100377.50;;;9.59;100.00
65329;BME280;51941;52.210;5.158;2023-04-24T08:26:51;100368.19;;;9.56;100.00
65329;BME280;51941;52.210;5.158;2023-04-24T08:29:22;100386.31;;;9.65;100.00
65329;BME280;51941;52.210;5.158;2023-04-24T08:31:48;100381.81;;;9.77;100.00
65329;BME280;51941;52.210;5.158;2023-04-24T08:34:15;100386.19;;;9.71;100.00
65329;BME280;51941;52.210;5.158;2023-04-24T08:36:43;100385.34;;;9.82;100.00
65329;BME280;51941;52.210;5.158;2023-04-24T08:39:10;100400.25;;;9.60;100.00
65329;BME280;51941;52.210;5.158;2023-04-24T08:41:37;100371.44;;;9.47;100.00
65329;BME280;51941;52.210;5.158;2023-04-24T08:44:04;100409.97;;;9.71;100.00
65329;BME280;51941;52.210;5.158;2023-04-24T08:46:32;100404.09;;;9.81;100.00
65329;BME280;51941;52.210;5.158;2023-04-24T08:52:05;100401.06;;;9.89;100.00
65329;BME280;51941;52.210;5.158;2023-04-24T08:54:33;100403.78;;;9.94;100.00
65329;BME280;51941;52.210;5.158;2023-04-24T08:57:02;100416.75;;;10.07;100.00
65329;BME280;51941;52.210;5.158;2023-04-24T08:59:29;100423.59;;;10.08;100.00
65329;BME280;51941;52.210;5.158;2023-04-24T09:01:57;100422.34;;;10.11;100.00
65329;BME280;51941;52.210;5.158;2023-04-24T09:05:05;100432.69;;;10.12;100.00
65329;BME280;51941;52.210;5.158;2023-04-24T09:07:52;100422.19;;;10.17;100.00
65329;BME280;51941;52.210;5.158;2023-04-24T09:10:20;100430.53;;;10.26;100.00
65329;BME280;51941;52.210;5.158;2023-04-24T09:12:47;100443.22;;;10.24;100.00
65329;BME280;51941;52.210;5.158;2023-04-24T09:15:14;100444.91;;;10.30;100.00
65329;BME280;51941;52.210;5.158;2023-04-24T09:17:40;100446.19;;;10.27;100.00
65329;BME280;51941;52.210;5.158;2023-04-24T09:20:08;100444.19;;;10.35;100.00
65329;BME280;51941;52.210;5.158;2023-04-24T09:22:35;100452.78;;;10.42;100.00
65329;BME280;51941;52.210;5.158;2023-04-24T09:25:07;100452.69;;;10.37;100.00
65329;BME280;51941;52.210;5.158;2023-04-24T09:27:35;100441.72;;;10.45;100.00
65329;BME280;51941;52.210;5.158;2023-04-24T09:30:02;100458.91;;;10.59;100.00
65329;BME280;51941;52.210;5.158;2023-04-24T09:32:29;100456.56;;;10.62;100.00
65329;BME280;51941;52.210;5.158;2023-04-24T09:35:08;100466.13;;;10.63;100.00
65329;BME280;51941;52.210;5.158;2023-04-24T09:37:36;100464.44;;;10.74;100.00
65329;BME280;51941;52.210;5.158;2023-04-24T09:40:15;100465.03;;;10.76;100.00
65329;BME280;51941;52.210;5.158;2023-04-24T09:42:50;100482.84;;;10.97;100.00
65329;BME280;51941;52.210;5.158;2023-04-24T09:45:18;100484.78;;;11.02;100.00
65329;BME280;51941;52.210;5.158;2023-04-24T09:47:44;100481.41;;;10.90;100.00
65329;BME280;51941;52.210;5.158;2023-04-24T09:50:13;100489.91;;;11.09;100.00
65329;BME280;51941;52.210;5.158;2023-04-24T09:52:41;100494.38;;;11.08;100.00
65329;BME280;51941;52.210;5.158;2023-04-24T09:55:19;100487.88;;;11.16;100.00
65329;BME280;51941;52.210;5.158;2023-04-24T09:57:50;100492.16;;;10.83;97.05
65329;BME280;51941;52.210;5.158;2023-04-24T10:00:25;100505.00;;;10.91;97.15
65329;BME280;51941;52.210;5.158;2023-04-24T10:02:59;100500.06;;;10.66;98.62
65329;BME280;51941;52.210;5.158;2023-04-24T10:05:29;100516.75;;;10.67;98.62
65329;BME280;51941;52.210;5.158;2023-04-24T10:07:59;100513.59;;;10.70;98.97
65329;BME280;51941;52.210;5.158;2023-04-24T10:10:28;100512.09;;;10.74;99.56
65329;BME280;51941;52.210;5.158;2023-04-24T10:12:55;100503.78;;;10.82;99.91
65329;BME280;51941;52.210;5.158;2023-04-24T10:15:22;100520.94;;;10.96;99.50
65329;BME280;51941;52.210;5.158;2023-04-24T10:17:50;100519.84;;;11.09;98.30
65329;BME280;51941;52.210;5.158;2023-04-24T10:20:20;100515.72;;;11.35;98.88
65329;BME280;51941;52.210;5.158;2023-04-24T10:22:48;100513.97;;;11.62;98.59
65329;BME280;51941;52.210;5.158;2023-04-24T10:25:18;100510.59;;;11.67;95.10
65329;BME280;51941;52.210;5.158;2023-04-24T10:27:47;100510.44;;;11.73;93.82
65329;BME280;51941;52.210;5.158;2023-04-24T10:30:18;100519.19;;;11.74;94.01
65329;BME280;51941;52.210;5.158;2023-04-24T10:32:45;100529.28;;;11.55;94.93
65329;BME280;51941;52.210;5.158;2023-04-24T10:35:13;100532.81;;;11.44;95.75
65329;BME280;51941;52.210;5.158;2023-04-24T10:38:15;100517.91;;;11.38;97.07
65329;BME280;51941;52.210;5.158;2023-04-24T10:41:08;100539.56;;;11.35;97.51
65329;BME280;51941;52.210;5.158;2023-04-24T10:43:43;100549.63;;;11.16;98.67
65329;BME280;51941;52.210;5.158;2023-04-24T10:46:10;100543.34;;;11.05;100.00
65329;BME280;51941;52.210;5.158;2023-04-24T10:48:43;100564.38;;;10.67;100.00
65329;BME280;51941;52.210;5.158;2023-04-24T10:51:13;100552.88;;;10.61;100.00
65329;BME280;51941;52.210;5.158;2023-04-24T10:53:40;100568.53;;;10.75;100.00
65329;BME280;51941;52.210;5.158;2023-04-24T10:59:27;100555.84;;;10.77;100.00
65329;BME280;51941;52.210;5.158;2023-04-24T11:04:51;100582.53;;;11.37;100.00
65329;BME280;51941;52.210;5.158;2023-04-24T11:11:06;100579.00;;;11.87;100.00
65329;BME280;51941;52.210;5.158;2023-04-24T11:14:03;100573.13;;;12.01;98.95
65329;BME280;51941;52.210;5.158;2023-04-24T11:16:34;100585.38;;;12.07;93.51
65329;BME280;51941;52.210;5.158;2023-04-24T11:19:05;100577.41;;;12.24;90.94
65329;BME280;51941;52.210;5.158;2023-04-24T11:21:39;100573.25;;;12.33;90.39
65329;BME280;51941;52.210;5.158;2023-04-24T11:24:49;100522.50;;;12.08;88.75
65329;BME280;51941;52.210;5.158;2023-04-24T11:27:46;100571.91;;;12.57;87.42
65329;BME280;51941;52.210;5.158;2023-04-24T11:30:22;100584.00;;;12.70;85.79
65329;BME280;51941;52.210;5.158;2023-04-24T11:32:51;100594.00;;;12.90;84.80
65329;BME280;51941;52.210;5.158;2023-04-24T11:36:00;100593.88;;;12.75;82.17
65329;BME280;51941;52.210;5.158;2023-04-24T11:38:28;100612.66;;;12.68;81.91
65329;BME280;51941;52.210;5.158;2023-04-24T11:40:55;100602.34;;;12.72;81.08
65329;BME280;51941;52.210;5.158;2023-04-24T11:43:54;100617.16;;;12.89;80.00
65329;BME280;51941;52.210;5.158;2023-04-24T11:46:22;100593.47;;;12.88;80.15
65329;BME280;51941;52.210;5.158;2023-04-24T11:51:41;100608.72;;;12.98;78.28
65329;BME280;51941;52.210;5.158;2023-04-24T11:54:08;100612.25;;;12.81;78.06
65329;BME280;51941;52.210;5.158;2023-04-24T11:56:35;100618.66;;;12.59;79.11
65329;BME280;51941;52.210;5.158;2023-04-24T11:59:28;100632.63;;;12.49;80.98
65329;BME280;51941;52.210;5.158;2023-04-24T12:02:37;100634.66;;;12.20;79.65
65329;BME280;51941;52.210;5.158;2023-04-24T12:05:06;100632.63;;;12.27;77.80
65329;BME280;51941;52.210;5.158;2023-04-24T12:07:40;100641.63;;;12.48;77.23
65329;BME280;51941;52.210;5.158;2023-04-24T12:10:08;100641.78;;;12.36;72.96
65329;BME280;51941;52.210;5.158;2023-04-24T12:12:35;100651.88;;;12.39;72.48
65329;BME280;51941;52.210;5.158;2023-04-24T12:15:07;100650.59;;;12.42;73.52
65329;BME280;51941;52.210;5.158;2023-04-24T12:17:35;100660.47;;;12.46;74.11
65329;BME280;51941;52.210;5.158;2023-04-24T12:20:03;100653.63;;;12.50;74.71
65329;BME280;51941;52.210;5.158;2023-04-24T12:22:44;100645.41;;;12.30;73.41
65329;BME280;51941;52.210;5.158;2023-04-24T12:25:12;100659.66;;;12.24;74.25
65329;BME280;51941;52.210;5.158;2023-04-24T12:27:40;100664.22;;;12.29;75.94
65329;BME280;51941;52.210;5.158;2023-04-24T12:30:10;100660.94;;;12.22;75.83
65329;BME280;51941;52.210;5.158;2023-04-24T12:32:41;100665.19;;;12.23;76.94
65329;BME280;51941;52.210;5.158;2023-04-24T12:35:08;100686.69;;;12.04;78.22
65329;BME280;51941;52.210;5.158;2023-04-24T12:37:35;100683.72;;;11.84;80.54
65329;BME280;51941;52.210;5.158;2023-04-24T12:42:46;100706.63;;;11.40;88.23
65329;BME280;51941;52.210;5.158;2023-04-24T12:45:14;100709.19;;;11.06;93.03
65329;BME280;51941;52.210;5.158;2023-04-24T12:47:44;100703.56;;;11.03;95.74
65329;BME280;51941;52.210;5.158;2023-04-24T12:50:13;100711.63;;;10.96;96.59
65329;BME280;51941;52.210;5.158;2023-04-24T12:52:41;100704.41;;;10.92;96.46
65329;BME280;51941;52.210;5.158;2023-04-24T12:55:08;100721.88;;;11.04;95.60
65329;BME280;51941;52.210;5.158;2023-04-24T12:57:36;100707.75;;;11.16;94.88
65329;BME280;51941;52.210;5.158;2023-04-24T13:00:07;100700.38;;;11.18;94.25
65329;BME280;51941;52.210;5.158;2023-04-24T13:02:34;100701.25;;;11.23;93.46
65329;BME280;51941;52.210;5.158;2023-04-24T13:05:01;100716.97;;;11.58;92.88
65329;BME280;51941;52.210;5.158;2023-04-24T13:07:28;100707.81;;;11.49;92.16
65329;BME280;51941;52.210;5.158;2023-04-24T13:09:55;100717.13;;;11.52;89.21
65329;BME280;51941;52.210;5.158;2023-04-24T13:12:22;100715.13;;;11.75;87.39
65329;BME280;51941;52.210;5.158;2023-04-24T13:14:50;100716.50;;;11.95;85.83
65329;BME280;51941;52.210;5.158;2023-04-24T13:17:19;100708.94;;;12.03;85.20
65329;BME280;51941;52.210;5.158;2023-04-24T13:19:46;100713.16;;;11.99;84.84